• Join FlightAware (Why Join?)
  • Login
  • US Flag 
07:18PM EDT


 

Airport Tracker/Info


-or-


 

Live Flight TrackerFlight Track Log ✈ JBU56 ✈ 17-Jul-2013 ✈ KIAD - KBOS

Flight Track Log - Related Links

Times and Time Zones

All times are in EDT time to prevent confusion due to time zone crossing. See the JBU56 flight status page for this flight to view local times or setup timezone preferences in your user account.

Time Position Orientation Groundspeed Altitude Reporting Facility
EDT Latitude Longitude Course Direction KTS MPH feet Rate Location/Type
09:02AM 38.9667 -77.5000 90° East 157 181 1,900  Level Potomac TRACON
09:03AM 39.0167 -77.5000 360° North 217 250 3,800 2,280 Climbing Potomac TRACON
09:04AM 39.0833 -77.5000 360° North 258 297 6,300 3,000 Climbing Potomac TRACON
09:05AM 39.0261 -76.9731 77° East  Level FlightAware Approximate
09:05AM 39.1333 -77.4500 38° Northeast 282 325 9,600  Level Potomac TRACON
09:06AM 39.0476 -76.8481 78° East  Level FlightAware Approximate
09:06AM 39.1500 -77.3500 78° East 331 381 10,100  Level Potomac TRACON
09:07AM 39.0667 -76.7227 90° East  Level FlightAware Approximate
09:08AM 39.0833 -76.6010 90° East  Level FlightAware Approximate
09:08AM 39.0844 -77.1586 114° Southeast 357 411 14,200  Level Washington Center
09:09AM 39.0672 -77.0353 100° East 352 405 16,500 1,980 Climbing Washington Center
09:10AM 39.0814 -76.9019 82° East 357 411 18,200 1,800 Climbing Washington Center
09:11AM 39.0953 -76.7631 83° East 371 427 20,200 1,980 Climbing Washington Center
09:12AM 39.1111 -76.6242 82° East 387 445 22,100 1,380 Climbing Washington Center
09:13AM 39.1247 -76.4825 83° East 393 452 23,000 660 Climbing Washington Center
09:14AM 39.1403 -76.3383 82° East 399 459 23,500 1,020 Climbing Washington Center
09:15AM 39.1536 -76.1858 84° East 415 478 25,100 1,200 Climbing Washington Center
09:16AM 39.1750 -76.0519 78° East 420 483 26,000 480 Climbing Washington Center
09:17AM 39.2339 -75.9239 59° Northeast 420 483 26,100 840 Climbing Washington Center
09:18AM 39.3153 -75.8117 47° Northeast 408 470 27,700 1,320 Climbing Washington Center
09:19AM 39.3947 -75.6936 49° Northeast 420 483 28,800 1,320 Climbing Washington Center
09:20AM 39.4781 -75.5756 48° Northeast 431 496 30,400 1,080 Climbing Washington Center
09:21AM 39.5592 -75.4569 48° Northeast 436 502 31,000 180 Climbing Washington Center
09:23AM 39.7342 -75.2033 48° Northeast 423 487 31,000  Level New York Center
09:24AM 39.8072 -75.0892 50° Northeast 435 501 31,000  Level New York Center
09:25AM 39.8844 -74.9722 49° Northeast 435 501 31,000  Level New York Center
09:26AM 39.9767 -74.8394 48° Northeast 444 511 31,000  Level New York Center
09:27AM 40.0492 -74.7272 50° Northeast 425 489 31,000 -120 Level New York Center
09:28AM 40.1197 -74.6172 50° Northeast 425 489 30,800 -600 Descending New York Center
09:29AM 40.2094 -74.4781 50° Northeast 446 513 29,900 -840 Descending New York Center
09:30AM 40.2906 -74.3547 49° Northeast 452 520 29,200 -780 Descending New York Center
09:31AM 40.3672 -74.2278 52° Northeast 447 514 28,400 -720 Descending New York Center
09:32AM 40.4819 -74.0472 50° Northeast 464 534 27,400 -720 Descending Boston Center
09:33AM 40.5589 -73.9233 51° Northeast 448 516 26,700 -720 Descending Boston Center
09:34AM 40.6333 -73.8019 51° Northeast 436 502 26,000 -720 Descending Boston Center
09:35AM 40.7075 -73.6803 51° Northeast 431 496 25,300 -720 Descending Boston Center
09:36AM 40.7817 -73.5611 51° Northeast 425 489 24,600 -660 Descending Boston Center
09:37AM 40.8581 -73.4417 50° Northeast 420 483 24,000 -300 Descending Boston Center
09:38AM 40.9403 -73.3247 47° Northeast 406 467 24,000 -360 Level Boston Center
09:39AM 41.0181 -73.2103 48° Northeast 401 461 23,300 -540 Descending Boston Center
09:40AM 41.0939 -73.0983 48° Northeast 406 467 23,000 -180 Descending Boston Center
09:41AM 41.1694 -72.9833 49° Northeast 411 473 23,000  Level Boston Center
09:42AM 41.2389 -72.8625 53° Northeast 411 473 23,000  Level Boston Center
09:43AM 41.2892 -72.7275 64° Northeast 406 467 23,000  Level Boston Center
09:44AM 41.3394 -72.5867 65° Northeast 411 473 23,000  Level Boston Center
09:45AM 41.3917 -72.4483 63° Northeast 411 473 23,000 -360 Level Boston Center
09:46AM 41.4397 -72.3239 63° Northeast 411 473 22,300 -1,200 Descending Boston Center
09:47AM 41.4914 -72.1767 65° Northeast 406 467 20,600 -1,800 Descending Boston Center
09:48AM 41.5411 -72.0492 62° Northeast 395 455 18,700 -1,740 Descending Boston Center
09:49AM 41.5781 -71.9267 68° East 390 449 17,200 -1,680 Descending Boston Center
09:50AM 41.6192 -71.7875 68° East 379 436 15,400 -1,620 Descending Boston Center
09:51AM 41.6517 -71.6761 69° East 366 421 14,000 -1,560 Descending Boston Center
09:52AM 41.6903 -71.5422 69° East 360 414 12,300 -1,500 Descending Boston Center
09:53AM 41.7228 -71.4333 68° East 334 384 11,000 -660 Descending Boston Center
09:54AM 41.7531 -71.3381 67° East 304 350 11,000  Level Boston Center
09:55AM 41.7981 -71.2372 59° Northeast 293 337 11,000 -60 Level Boston Center
09:56AM 41.8472 -71.1636 48° Northeast 287 330 10,900 -960 Descending Boston Center
09:58AM 41.9333 -71.1000 29° Northeast 282 325 9,000 -1,680 Descending KA90
09:59AM 42.0000 -71.0500 29° Northeast 276 318 7,300 -1,500 Descending KA90
10:00AM 42.0833 -71.0167 17° North 273 314 6,000 -660 Descending KA90
10:01AM 42.1500 -71.0000 11° North 275 316 6,000  Level KA90
10:01AM 42.2167 -70.9667 20° North 259 298 6,000  Level KA90
10:02AM 42.2833 -70.9500 10° North 231 266 6,000  Level KA90
10:03AM 42.3333 -70.9500 360° North 230 265 6,000  Level KA90
10:04AM 42.4000 -70.9500 360° North 231 266 6,000 -120 Level KA90
10:05AM 42.4667 -71.0000 331° Northwest 225 259 5,800 -720 Descending KA90
10:06AM 42.5000 -71.0500 312° West 225 259 4,600 -900 Descending KA90
10:07AM 42.5500 -71.1000 324° Northwest 222 255 4,000 -300 Descending KA90
10:08AM 42.5833 -71.1667 304° West 219 252 4,000  Level KA90
10:09AM 42.5333 -71.2167 216° Southwest 196 226 4,000 -300 Level KA90
10:10AM 42.5000 -71.1833 144° Southeast 205 236 3,400 -900 Descending KA90
10:11AM 42.4500 -71.1333 144° Southeast 202 232 2,300 -960 Descending KA90
10:13AM 42.4167 -71.0833 132° Southeast 171 197 1,400 -840 Descending KA90
10:14AM 42.4000 -71.0500 124° Southeast 137 158 600 -840 Descending KA90